createdAt,value
2023-06-10T00:02:06.029Z,18.60
2023-06-10T00:07:11.701Z,17.80
2023-06-10T00:12:16.271Z,18.50
2023-06-10T00:17:21.008Z,18.30
2023-06-10T00:22:26.065Z,18.20
2023-06-10T00:27:32.696Z,18.10
2023-06-10T00:32:39.238Z,18.00
2023-06-10T00:37:42.616Z,17.80
2023-06-10T00:42:45.724Z,17.80
2023-06-10T00:47:50.990Z,17.70
2023-06-10T00:52:55.916Z,17.60
2023-06-10T00:57:59.516Z,17.50
2023-06-10T01:03:09.302Z,17.30
2023-06-10T01:08:20.693Z,17.30
2023-06-10T01:13:25.341Z,17.10
2023-06-10T01:18:33.714Z,17.10
2023-06-10T01:23:38.201Z,16.90
2023-06-10T01:28:46.504Z,16.90
2023-06-10T01:33:51.740Z,16.90
2023-06-10T01:38:56.365Z,16.80
2023-06-10T01:43:59.513Z,16.70
2023-06-10T01:49:02.603Z,16.70
2023-06-10T01:54:07.632Z,16.60
2023-06-10T01:59:11.017Z,16.60
2023-06-10T02:04:14.769Z,16.50
2023-06-10T02:09:20.353Z,16.40
2023-06-10T02:14:23.794Z,16.30
2023-06-10T02:19:28.260Z,16.20
2023-06-10T02:24:33.038Z,16.10
2023-06-10T02:29:36.717Z,16.10
2023-06-10T02:34:40.781Z,16.00
2023-06-10T02:39:46.098Z,15.90
2023-06-10T02:44:49.677Z,15.90
2023-06-10T02:50:01.551Z,15.80
2023-06-10T02:55:09.303Z,15.80
2023-06-10T03:00:21.742Z,15.80
2023-06-10T03:05:26.595Z,15.80
2023-06-10T03:10:34.378Z,15.70
2023-06-10T03:15:39.153Z,15.60
2023-06-10T03:20:46.198Z,15.60
2023-06-10T03:25:51.476Z,15.60
2023-06-10T03:30:56.870Z,15.70
2023-06-10T03:36:02.902Z,15.60
2023-06-10T03:41:07.698Z,15.60
2023-06-10T03:46:12.107Z,15.60
2023-06-10T03:51:16.609Z,15.60
2023-06-10T03:56:22.087Z,15.60
2023-06-10T04:01:26.310Z,15.60
2023-06-10T04:06:30.664Z,15.60
2023-06-10T04:11:35.582Z,15.70
2023-06-10T04:16:39.977Z,15.70
2023-06-10T04:21:43.504Z,15.80
2023-06-10T04:26:48.233Z,15.80
2023-06-10T04:31:52.020Z,15.90
2023-06-10T04:36:55.652Z,15.80
2023-06-10T04:42:00.592Z,15.80
2023-06-10T04:47:04.201Z,15.80
2023-06-10T04:52:07.971Z,15.90
2023-06-10T04:57:16.666Z,16.00
2023-06-10T05:02:20.209Z,17.10
2023-06-10T05:07:23.683Z,18.90
2023-06-10T05:12:28.658Z,20.20
2023-06-10T05:17:32.119Z,21.30
2023-06-10T05:22:35.836Z,21.80
2023-06-10T05:27:41.778Z,20.10
2023-06-10T05:32:45.169Z,18.60
2023-06-10T05:37:48.763Z,17.90
2023-06-10T05:42:53.516Z,17.50
2023-06-10T05:47:56.887Z,17.30
2023-06-10T05:53:00.390Z,17.10
2023-06-10T05:58:05.205Z,17.20
2023-06-10T06:03:09.272Z,17.40
2023-06-10T06:08:12.745Z,17.40
2023-06-10T06:13:17.661Z,17.50
2023-06-10T06:18:21.004Z,17.70
2023-06-10T06:23:24.595Z,17.80
2023-06-10T06:28:30.622Z,17.90
2023-06-10T06:33:34.216Z,18.00
2023-06-10T06:38:38.745Z,18.10
2023-06-10T06:43:44.827Z,18.20
2023-06-10T06:49:06.871Z,18.30
2023-06-10T06:54:10.313Z,18.60
2023-06-10T06:59:15.435Z,18.80
2023-06-10T07:04:21.150Z,18.90
2023-06-10T07:09:24.740Z,19.00
2023-06-10T07:14:29.779Z,19.20
2023-06-10T07:19:33.219Z,19.40
2023-06-10T07:24:36.759Z,19.50
2023-06-10T07:29:41.568Z,19.80
2023-06-10T07:34:45.111Z,19.90
2023-06-10T07:39:48.744Z,20.10
2023-06-10T07:44:53.831Z,20.40
2023-06-10T07:49:57.381Z,20.80
2023-06-10T07:55:01.031Z,21.10
2023-06-10T08:00:06.388Z,21.30
2023-06-10T08:05:16.130Z,21.70
2023-06-10T08:10:19.691Z,22.00
2023-06-10T08:15:24.646Z,22.20
2023-06-10T08:20:28.114Z,22.00
2023-06-10T08:25:31.899Z,22.40
2023-06-10T08:30:36.695Z,22.60
2023-06-10T08:35:40.255Z,23.00
2023-06-10T08:40:43.722Z,23.20
2023-06-10T08:45:51.241Z,23.00
2023-06-10T08:50:55.315Z,23.30
2023-06-10T08:56:01.262Z,23.50
2023-06-10T09:01:06.060Z,23.50
2023-06-10T09:06:09.826Z,23.80
2023-06-10T09:11:13.140Z,23.90
2023-06-10T09:16:18.413Z,24.40
2023-06-10T09:21:22.099Z,24.80
2023-06-10T09:26:30.332Z,25.10
2023-06-10T09:31:38.458Z,25.30
2023-06-10T09:36:42.489Z,25.30
2023-06-10T09:41:46.688Z,25.40
2023-06-10T09:46:52.313Z,25.90
2023-06-10T09:51:56.534Z,25.90
2023-06-10T09:57:01.449Z,26.20
2023-06-10T10:02:09.015Z,26.30
2023-06-10T10:07:15.191Z,26.60
2023-06-10T10:12:18.651Z,26.90
2023-06-10T10:17:25.203Z,27.00
2023-06-10T10:22:30.322Z,27.50
2023-06-10T10:27:36.142Z,27.60
2023-06-10T10:32:44.373Z,27.80
2023-06-10T10:37:48.046Z,27.90
2023-06-10T10:42:51.881Z,27.90
2023-06-10T10:47:58.867Z,28.00
2023-06-10T10:53:04.949Z,27.70
2023-06-10T10:58:09.230Z,27.80
2023-06-10T11:03:17.747Z,27.80
2023-06-10T11:08:36.249Z,31.40
2023-06-10T11:13:40.425Z,28.40
2023-06-10T11:18:45.168Z,28.90
2023-06-10T11:23:48.707Z,29.00
2023-06-10T11:29:07.022Z,29.20
2023-06-10T11:34:12.030Z,29.80
2023-06-10T11:39:15.574Z,29.60
2023-06-10T11:44:20.237Z,29.60
2023-06-10T11:49:26.700Z,29.30
2023-06-10T11:54:29.840Z,29.10
2023-06-10T11:59:32.971Z,29.40
2023-06-10T12:04:38.358Z,30.10
2023-06-10T12:09:41.362Z,29.90
2023-06-10T12:14:55.330Z,29.40
2023-06-10T12:20:00.803Z,28.70
2023-06-10T12:25:05.985Z,28.50
2023-06-10T12:30:09.390Z,28.60
2023-06-10T12:35:15.067Z,29.30
2023-06-10T12:40:18.569Z,30.20
2023-06-10T12:45:29.830Z,31.00
2023-06-10T12:50:34.333Z,31.00
2023-06-10T12:55:37.785Z,30.20
2023-06-10T13:00:41.707Z,29.20
2023-06-10T13:05:46.085Z,26.10
2023-06-10T13:10:50.555Z,23.20
2023-06-10T13:15:53.905Z,21.70
2023-06-10T13:20:58.874Z,21.60
2023-06-10T13:26:03.962Z,22.00
2023-06-10T13:31:07.499Z,22.50
2023-06-10T13:36:12.308Z,23.00
2023-06-10T13:41:15.741Z,23.40
2023-06-10T13:46:19.142Z,23.80
2023-06-10T13:51:23.971Z,24.30
2023-06-10T13:56:27.371Z,24.90
2023-06-10T14:01:30.968Z,25.50
2023-06-10T14:06:35.860Z,26.10
2023-06-10T14:11:39.211Z,26.70
2023-06-10T14:16:43.544Z,26.90
2023-06-10T14:21:48.596Z,27.40
2023-06-10T14:26:51.997Z,27.70
2023-06-10T14:31:55.337Z,27.90
2023-06-10T14:37:01.207Z,27.80
2023-06-10T14:42:04.579Z,27.90
2023-06-10T14:47:08.038Z,28.10
2023-06-10T14:52:12.736Z,28.10
2023-06-10T14:57:16.230Z,28.10
2023-06-10T15:02:19.691Z,27.20
2023-06-10T15:07:26.435Z,26.70
2023-06-10T15:12:30.532Z,26.20
2023-06-10T15:17:34.981Z,25.80
2023-06-10T15:22:39.937Z,25.60
2023-06-10T15:27:43.452Z,25.40
2023-06-10T15:32:46.847Z,25.50
2023-06-10T15:37:51.618Z,25.80
2023-06-10T15:42:54.688Z,26.20
2023-06-10T15:47:57.808Z,26.50
2023-06-10T15:53:02.547Z,26.60
2023-06-10T15:58:06.374Z,27.30
2023-06-10T16:03:09.894Z,27.70
2023-06-10T16:08:14.815Z,28.00
2023-06-10T16:13:18.089Z,28.10
2023-06-10T16:18:21.596Z,28.60
2023-06-10T16:23:26.900Z,29.20
2023-06-10T16:28:30.166Z,29.60
2023-06-10T16:33:33.521Z,29.80
2023-06-10T16:38:38.345Z,29.80
2023-06-10T16:43:41.588Z,30.40
2023-06-10T16:48:45.874Z,30.50
2023-06-10T16:53:51.960Z,30.70
2023-06-10T16:58:55.521Z,30.00
2023-06-10T17:03:58.650Z,29.40
2023-06-10T17:09:03.443Z,28.80
2023-06-10T17:14:06.824Z,28.80
2023-06-10T17:19:10.290Z,28.70
2023-06-10T17:24:15.054Z,28.50
2023-06-10T17:29:18.489Z,28.00
2023-06-10T17:34:21.877Z,27.60
2023-06-10T17:39:26.661Z,27.30
2023-06-10T17:44:29.936Z,27.00
2023-06-10T17:49:33.455Z,26.70
2023-06-10T17:54:37.926Z,26.50
2023-06-10T17:59:41.714Z,26.30
2023-06-10T18:04:44.830Z,26.20
2023-06-10T18:09:49.289Z,25.90
2023-06-10T18:14:52.415Z,25.80
2023-06-10T18:19:55.453Z,25.60
2023-06-10T18:25:00.547Z,25.60
2023-06-10T18:30:03.708Z,25.60
2023-06-10T18:35:07.221Z,26.00
2023-06-10T18:40:12.274Z,26.10
2023-06-10T18:45:15.273Z,25.80
2023-06-10T18:50:18.567Z,25.40
2023-06-10T18:55:23.506Z,25.20
2023-06-10T19:00:27.018Z,24.80
2023-06-10T19:05:30.537Z,24.60
2023-06-10T19:10:35.504Z,24.30
2023-06-10T19:15:39.375Z,24.10
2023-06-10T19:20:44.293Z,23.90
2023-06-10T19:25:49.248Z,23.70
2023-06-10T19:30:52.775Z,23.40
2023-06-10T19:35:57.027Z,23.20
2023-06-10T19:41:02.677Z,23.00
2023-06-10T19:46:06.166Z,22.70
2023-06-10T19:51:09.345Z,22.60
2023-06-10T19:56:19.747Z,22.10
2023-06-10T20:01:23.184Z,22.00
2023-06-10T20:06:26.199Z,21.80
2023-06-10T20:11:30.742Z,21.80
2023-06-10T20:16:33.735Z,21.60
2023-06-10T20:21:36.767Z,21.60
2023-06-10T20:26:41.165Z,21.50
2023-06-10T20:31:46.851Z,21.30
2023-06-10T20:36:50.431Z,21.10
2023-06-10T20:41:55.161Z,21.20
2023-06-10T20:46:58.599Z,21.10
2023-06-10T20:52:02.086Z,21.00
2023-06-10T20:57:07.739Z,20.90
2023-06-10T21:02:11.294Z,20.80
2023-06-10T21:07:14.758Z,20.70
2023-06-10T21:12:20.532Z,20.70
2023-06-10T21:17:23.740Z,20.70
2023-06-10T21:22:27.233Z,20.70
2023-06-10T21:27:32.075Z,20.50
2023-06-10T21:32:35.537Z,20.50
2023-06-10T21:37:39.113Z,20.50
2023-06-10T21:42:43.817Z,20.50
2023-06-10T21:47:47.556Z,20.40
2023-06-10T21:52:51.140Z,20.20
2023-06-10T21:57:56.456Z,20.10
2023-06-10T22:02:59.977Z,19.90
2023-06-10T22:08:04.712Z,19.80
2023-06-10T22:13:09.898Z,19.80
2023-06-10T22:18:13.467Z,19.70
2023-06-10T22:23:20.455Z,19.60
2023-06-10T22:28:25.302Z,19.50
2023-06-10T22:33:28.733Z,19.40
2023-06-10T22:38:32.288Z,19.40
2023-06-10T22:43:37.140Z,19.30
2023-06-10T22:48:40.620Z,19.20
2023-06-10T22:53:44.142Z,19.20
2023-06-10T22:58:48.960Z,19.10
2023-06-10T23:03:52.199Z,19.20
2023-06-10T23:08:55.669Z,19.10
2023-06-10T23:14:00.566Z,19.00
2023-06-10T23:19:04.080Z,19.00
2023-06-10T23:24:07.667Z,19.00
2023-06-10T23:29:12.583Z,19.00
2023-06-10T23:34:16.123Z,19.00
2023-06-10T23:39:19.584Z,18.90
2023-06-10T23:44:24.306Z,18.80
2023-06-10T23:49:27.765Z,18.80
2023-06-10T23:54:31.363Z,18.70
2023-06-10T23:59:36.152Z,18.70
